Time;durP1;ratioP1;P1;durP2;ratioP2;P2;SDS_P1;SDS_P2;PMS_P1;PMS_P2;Temp;Humidity;BMP_temperature;BMP_pressure;BME280_temperature;BME280_humidity;BME280_pressure;Samples;Min_cycle;Max_cycle;Signal;HPM_P1;HPM_P2
2021/04/27 00:01:42;;;;;;;11.80;4.35;;;;;;;0.67;56.71;96593.67;1795651;79;21137;-83
2021/04/27 00:04:09;;;;;;;7.15;4.17;;;;;;;0.68;56.98;96590.05;1791266;80;22175;-84
2021/04/27 00:06:36;;;;;;;8.25;4.10;;;;;;;0.71;57.23;96585.73;1793931;80;21144;-83
2021/04/27 00:09:07;;;;;;;9.40;4.45;;;;;;;0.75;57.00;96588.19;1796678;80;21154;-83
2021/04/27 00:11:36;;;;;;;10.50;5.17;;;;;;;0.75;56.59;96580.36;1797622;80;21114;-83
2021/04/27 00:14:06;;;;;;;9.98;4.45;;;;;;;0.80;56.68;96578.69;1762471;80;21151;-83
2021/04/27 00:16:35;;;;;;;10.15;4.33;;;;;;;0.75;56.86;96573.33;1762120;80;21144;-83
2021/04/27 00:19:04;;;;;;;7.70;3.83;;;;;;;0.64;57.02;96575.85;1774210;80;21138;-83
2021/04/27 00:21:32;;;;;;;9.05;3.00;;;;;;;0.53;57.90;96578.15;1782000;79;21637;-83
2021/04/27 00:23:59;;;;;;;7.55;3.35;;;;;;;0.50;58.37;96570.76;1797821;79;21147;-83
2021/04/27 00:26:25;;;;;;;6.20;3.30;;;;;;;0.50;58.04;96570.76;1772164;80;21127;-83
2021/04/27 00:28:53;;;;;;;6.80;3.65;;;;;;;0.50;58.04;96570.76;1771475;79;21728;-83
2021/04/27 00:31:20;;;;;;;6.37;3.27;;;;;;;0.56;57.87;96563.39;1784986;80;21142;-83
2021/04/27 00:33:47;;;;;;;7.95;3.85;;;;;;;0.50;57.72;96531.64;1796861;80;21134;-83
2021/04/27 00:36:14;;;;;;;8.63;4.12;;;;;;;0.68;57.93;96558.23;1789417;80;21167;-83
2021/04/27 00:38:41;;;;;;;9.25;4.55;;;;;;;0.68;57.99;96562.66;1765535;80;21132;-83
2021/04/27 00:41:10;;;;;;;10.48;4.70;;;;;;;0.69;57.91;96565.55;1782209;79;21520;-83
2021/04/27 00:43:38;;;;;;;7.40;3.60;;;;;;;0.72;58.06;96569.86;1784480;79;21148;-83
2021/04/27 00:46:05;;;;;;;5.58;3.25;;;;;;;0.75;58.10;96558.98;1783846;79;21166;-83
2021/04/27 00:48:32;;;;;;;8.93;3.72;;;;;;;0.81;57.66;96561.22;1770855;79;21277;-83
2021/04/27 00:50:59;;;;;;;7.97;4.08;;;;;;;0.81;57.66;96561.22;1773709;80;21624;-83
2021/04/27 00:53:28;;;;;;;9.58;4.30;;;;;;;0.73;57.95;96555.80;1777978;79;21628;-83
2021/04/27 00:55:55;;;;;;;10.18;4.65;;;;;;;0.68;57.80;96545.70;1772020;79;21283;-83
2021/04/27 00:58:24;;;;;;;10.00;4.92;;;;;;;0.66;57.94;96551.14;1792178;79;21168;-83
2021/04/27 01:00:52;;;;;;;10.53;5.72;;;;;;;0.56;58.33;96550.83;1762774;80;21187;-83
2021/04/27 01:03:19;;;;;;;11.97;5.62;;;;;;;0.40;58.58;96561.31;1756017;81;21655;-84
2021/04/27 01:05:47;;;;;;;10.48;4.75;;;;;;;0.31;58.75;96558.71;1772536;80;21079;-83
2021/04/27 01:08:42;;;;;;;10.88;4.50;;;;;;;0.33;58.77;96552.77;1796686;79;21463;-83
2021/04/27 01:11:53;;;;;;;8.68;4.30;;;;;;;0.38;59.02;96550.81;1767449;80;21493;-83
2021/04/27 01:14:33;;;;;;;12.37;6.05;;;;;;;0.29;59.43;96537.27;1763023;80;21172;-84
2021/04/27 01:17:03;;;;;;;;;;;;;;;0.27;59.55;96553.11;1762399;79;21272;-83
2021/04/27 01:19:48;;;;;;;10.68;4.67;;;;;;;0.25;59.74;96549.92;1755193;81;20217;-83
2021/04/27 01:22:23;;;;;;;9.63;5.37;;;;;;;0.29;59.65;96552.92;1755573;81;21487;-84
2021/04/27 01:24:55;;;;;;;11.43;5.72;;;;;;;0.39;59.41;96546.69;1758115;81;21620;-84
2021/04/27 01:27:24;;;;;;;11.30;6.12;;;;;;;0.48;59.12;96545.41;1755152;80;21209;-84
2021/04/27 01:29:52;;;;;;;12.13;4.87;;;;;;;0.75;58.73;96547.75;1795419;79;21147;-84
2021/04/27 01:32:20;;;;;;;9.05;4.80;;;;;;;0.75;58.73;96547.75;1786439;79;21120;-84
2021/04/27 01:34:49;;;;;;;13.55;4.95;;;;;;;0.88;58.53;96545.79;1751749;81;21083;-84
2021/04/27 01:37:16;;;;;;;12.88;5.45;;;;;;;0.97;58.13;96538.44;1758374;81;21127;-84
2021/04/27 01:39:44;;;;;;;10.90;4.97;;;;;;;1.05;57.97;96532.94;1766743;80;21114;-84
2021/04/27 01:42:11;;;;;;;11.03;5.70;;;;;;;1.04;57.82;96541.78;1758356;80;21486;-84
2021/04/27 01:44:42;;;;;;;10.23;5.05;;;;;;;0.92;58.05;96535.70;1758715;81;21277;-84
2021/04/27 01:47:10;;;;;;;11.85;5.08;;;;;;;0.83;57.76;96541.71;1755221;80;21136;-84
2021/04/27 01:49:44;;;;;;;7.85;4.12;;;;;;;0.82;58.05;96541.42;1788248;78;21466;-84
2021/04/27 01:52:13;;;;;;;8.20;4.33;;;;;;;0.82;57.97;96536.20;1782177;79;21444;-84
2021/04/27 01:54:40;;;;;;;8.93;4.40;;;;;;;0.88;58.19;96529.33;1804882;78;21148;-84
2021/04/27 01:57:07;;;;;;;6.20;3.70;;;;;;;0.94;58.18;96540.19;1801386;79;21130;-84
2021/04/27 01:59:34;;;;;;;9.65;4.50;;;;;;;0.85;58.08;96535.80;1801209;79;21146;-84
2021/04/27 02:02:01;;;;;;;7.37;3.95;;;;;;;0.72;58.97;96536.45;1785312;79;21184;-84
2021/04/27 02:04:30;;;;;;;9.93;4.12;;;;;;;0.55;59.29;96534.89;1768602;81;21509;-84
2021/04/27 02:06:57;;;;;;;7.67;4.05;;;;;;;0.49;59.22;96531.86;1807035;78;21099;-84
2021/04/27 02:09:28;;;;;;;9.20;4.47;;;;;;;0.50;59.56;96530.33;1791839;79;21532;-84
2021/04/27 02:11:56;;;;;;;10.30;4.70;;;;;;;0.36;59.27;96507.22;1781111;79;21585;-84
2021/04/27 02:14:28;;;;;;;8.68;4.95;;;;;;;0.48;58.93;96525.84;1792801;78;21170;-84
2021/04/27 02:17:09;;;;;;;10.82;5.10;;;;;;;0.53;58.78;96533.81;1792172;79;21139;-84
2021/04/27 02:19:40;;;;;;;8.00;4.50;;;;;;;0.57;58.43;96525.86;1792105;79;21300;-84
2021/04/27 02:22:09;;;;;;;;;;;;;;;0.65;58.27;96527.38;1782302;80;21499;-84
2021/04/27 02:24:38;;;;;;;8.30;4.15;;;;;;;0.68;58.57;96526.13;1802643;79;20134;-84
2021/04/27 02:27:11;;;;;;;9.98;4.30;;;;;;;0.55;58.13;96516.63;1791069;79;21155;-84
2021/04/27 02:29:40;;;;;;;9.68;4.25;;;;;;;0.55;58.00;96529.67;1788151;79;21123;-84
2021/04/27 02:32:08;;;;;;;9.85;4.08;;;;;;;0.54;58.28;96523.66;1786761;79;21113;-84
2021/04/27 02:34:35;;;;;;;11.80;4.80;;;;;;;0.30;59.02;96528.44;1775067;79;21551;-84
2021/04/27 02:37:04;;;;;;;9.68;4.70;;;;;;;0.30;59.02;96528.44;1795712;78;21630;-84
2021/04/27 02:39:31;;;;;;;7.15;3.35;;;;;;;0.31;59.15;96529.23;1777361;79;21130;-84
2021/04/27 02:41:58;;;;;;;8.60;3.33;;;;;;;0.24;59.10;96528.77;1801335;79;21526;-84
2021/04/27 02:44:26;;;;;;;6.47;2.83;;;;;;;0.05;59.50;96525.05;1779666;79;21496;-84
2021/04/27 02:46:53;;;;;;;6.03;2.60;;;;;;;0.08;59.44;96526.72;1797475;78;21521;-84
2021/04/27 02:49:20;;;;;;;7.58;3.10;;;;;;;0.08;59.44;96526.72;1804804;78;21178;-84
2021/04/27 02:51:47;;;;;;;6.00;2.80;;;;;;;0.12;59.41;96525.27;1768686;79;21319;-84
2021/04/27 02:54:14;;;;;;;5.65;2.92;;;;;;;0.12;59.17;96530.98;1779701;80;21491;-84
2021/04/27 02:56:41;;;;;;;4.50;2.83;;;;;;;0.12;58.97;96533.59;1757352;81;21516;-84
2021/04/27 02:59:09;;;;;;;7.03;3.30;;;;;;;0.12;58.97;96533.59;1775126;79;21156;-84
2021/04/27 03:01:37;;;;;;;5.17;2.95;;;;;;;0.15;58.97;96537.90;1793406;80;21071;-84
2021/04/27 03:04:06;;;;;;;5.92;2.92;;;;;;;0.17;59.04;96545.00;1793837;79;21483;-84
2021/04/27 03:06:33;;;;;;;8.55;3.35;;;;;;;0.15;59.16;96537.10;1824673;77;21152;-84
2021/04/27 03:09:01;;;;;;;5.95;3.05;;;;;;;0.11;59.67;96542.42;1778640;79;21561;-84
2021/04/27 03:11:28;;;;;;;5.67;3.15;;;;;;;-0.10;59.92;96539.70;1794839;80;21068;-84
2021/04/27 03:13:56;;;;;;;5.90;2.67;;;;;;;-0.18;60.18;96538.65;1811627;78;21483;-85
2021/04/27 03:16:24;;;;;;;6.33;3.02;;;;;;;-0.19;60.11;96536.55;1797616;78;21103;-84
2021/04/27 03:18:51;;;;;;;4.97;2.58;;;;;;;-0.18;60.06;96542.05;1787440;78;21241;-85
2021/04/27 03:21:19;;;;;;;5.30;3.17;;;;;;;-0.18;60.06;96542.05;1802288;78;21507;-84
2021/04/27 03:23:47;;;;;;;6.45;3.33;;;;;;;-0.21;60.02;96536.47;1783685;79;21109;-84
2021/04/27 03:26:14;;;;;;;6.72;3.20;;;;;;;-0.21;60.02;96540.37;1779615;79;21629;-84
2021/04/27 03:28:42;;;;;;;6.35;3.10;;;;;;;-0.26;60.22;96532.41;1782237;80;21141;-84
2021/04/27 03:31:09;;;;;;;4.33;2.90;;;;;;;-0.29;59.86;96546.63;1792172;80;21520;-84
2021/04/27 03:33:36;;;;;;;6.50;3.08;;;;;;;-0.29;59.86;96546.63;1777558;80;21514;-84
2021/04/27 03:36:05;;;;;;;5.53;3.00;;;;;;;-0.45;59.95;96515.89;1776664;80;21467;-84
2021/04/27 03:38:32;;;;;;;8.85;3.58;;;;;;;-0.30;59.76;96541.13;1783763;80;21135;-84
2021/04/27 03:41:00;;;;;;;7.55;3.90;;;;;;;-0.30;59.76;96541.13;1774196;78;21138;-84
2021/04/27 03:43:28;;;;;;;6.75;3.72;;;;;;;-0.31;59.79;96544.75;1797491;78;21154;-84
2021/04/27 03:45:55;;;;;;;5.35;3.60;;;;;;;-0.21;59.84;96545.59;1790179;78;21509;-84
2021/04/27 03:48:24;;;;;;;6.12;3.85;;;;;;;-0.19;59.75;96544.36;1786340;79;21163;-84
2021/04/27 03:50:52;;;;;;;6.40;3.47;;;;;;;-0.22;59.76;96549.20;1798148;79;21573;-85
2021/04/27 03:53:19;;;;;;;8.20;4.15;;;;;;;-0.30;59.71;96547.14;1803644;79;21146;-84
2021/04/27 03:55:46;;;;;;;6.80;4.17;;;;;;;-0.24;59.97;96553.33;1802328;79;21260;-84
2021/04/27 03:58:14;;;;;;;9.58;4.20;;;;;;;-0.24;59.97;96553.33;1825432;78;21609;-84
2021/04/27 04:00:42;;;;;;;11.70;5.20;;;;;;;-0.16;60.06;96549.14;1794720;78;21494;-84
2021/04/27 04:03:09;;;;;;;11.90;5.95;;;;;;;-0.27;60.21;96535.52;1777188;79;21194;-84
2021/04/27 04:05:36;;;;;;;10.80;5.25;;;;;;;-0.27;60.21;96535.52;1794612;79;21506;-84
2021/04/27 04:08:04;;;;;;;10.55;5.20;;;;;;;-0.12;60.49;96554.75;1782014;79;21106;-84
2021/04/27 04:10:31;;;;;;;18.37;8.15;;;;;;;-0.08;60.35;96548.10;1778586;79;21118;-84
2021/04/27 04:12:58;;;;;;;19.87;7.83;;;;;;;0.03;60.94;96549.23;1779539;79;21130;-84
2021/04/27 04:15:26;;;;;;;14.05;7.55;;;;;;;0.10;61.10;96552.56;1808848;78;21585;-84
2021/04/27 04:17:53;;;;;;;15.50;7.10;;;;;;;0.29;61.05;96549.01;1789917;79;21248;-84
2021/04/27 04:20:24;;;;;;;15.15;6.60;;;;;;;0.39;60.36;96549.80;1765317;80;21191;-84
2021/04/27 04:22:52;;;;;;;13.28;6.58;;;;;;;0.45;60.46;96548.95;1789228;79;21087;-85
2021/04/27 04:25:21;;;;;;;10.55;6.33;;;;;;;0.59;60.82;96549.12;1807926;78;21103;-84
2021/04/27 04:27:48;;;;;;;13.10;6.03;;;;;;;0.72;60.69;96549.49;1790815;79;21114;-84
2021/04/27 04:30:21;;;;;;;12.88;6.87;;;;;;;1.03;61.02;96553.25;1803194;79;21084;-84
2021/04/27 04:32:49;;;;;;;14.78;8.13;;;;;;;1.69;61.16;96555.48;1803503;79;21471;-84
2021/04/27 04:35:20;;;;;;;19.57;9.93;;;;;;;3.52;60.80;96547.72;1821684;78;21147;-84
2021/04/27 04:37:47;;;;;;;20.23;10.45;;;;;;;5.31;58.61;96559.28;1796859;79;21253;-85
2021/04/27 04:40:16;;;;;;;21.77;12.05;;;;;;;6.71;56.54;96558.44;1803122;78;21092;-84
2021/04/27 04:42:44;;;;;;;22.40;10.15;;;;;;;7.68;53.73;96553.83;1784848;79;21635;-84
2021/04/27 04:45:14;;;;;;;13.90;8.28;;;;;;;8.23;51.28;96547.56;1788711;80;21571;-85
2021/04/27 04:47:42;;;;;;;13.08;7.12;;;;;;;8.86;49.65;96552.00;1763949;80;21524;-85
2021/04/27 04:50:15;;;;;;;11.75;6.60;;;;;;;9.62;48.26;96551.72;1778647;80;21142;-85
2021/04/27 04:52:43;;;;;;;10.30;6.40;;;;;;;10.52;47.85;96556.67;1811875;78;21477;-85
2021/04/27 04:55:13;;;;;;;10.93;6.67;;;;;;;11.69;46.53;96555.41;1808205;78;21104;-85
2021/04/27 04:57:41;;;;;;;12.13;6.92;;;;;;;12.78;45.24;96555.59;1785294;79;21512;-84
2021/04/27 05:00:14;;;;;;;12.63;6.72;;;;;;;14.39;45.85;96555.77;1754247;79;21141;-85
2021/04/27 05:02:41;;;;;;;12.53;7.40;;;;;;;16.24;44.29;96553.36;1783718;79;21102;-85
2021/04/27 05:05:11;;;;;;;13.20;7.20;;;;;;;17.90;42.26;96551.72;1782797;79;21147;-85
2021/04/27 05:07:44;;;;;;;13.62;8.23;;;;;;;19.27;40.58;96554.19;1759667;79;21110;-84
2021/04/27 05:10:16;;;;;;;14.28;7.17;;;;;;;20.25;38.40;96549.49;1788944;78;21115;-85
2021/04/27 05:12:43;;;;;;;12.93;6.53;;;;;;;21.28;37.09;96551.49;1791327;78;21143;-83
2021/04/27 05:15:11;;;;;;;10.45;5.62;;;;;;;22.29;35.42;96547.98;1777534;79;21132;-83
2021/04/27 05:17:38;;;;;;;9.50;5.92;;;;;;;23.08;34.02;96542.92;1773560;79;21151;-83
2021/04/27 05:20:07;;;;;;;11.63;6.03;;;;;;;23.81;32.36;96548.33;1787241;79;21138;-83
2021/04/27 05:22:36;;;;;;;11.33;5.55;;;;;;;24.46;31.98;96554.22;1775888;79;21158;-83
2021/04/27 05:25:06;;;;;;;10.72;5.78;;;;;;;24.71;30.76;96549.08;1768710;79;21475;-82
2021/04/27 05:27:33;;;;;;;11.88;6.37;;;;;;;24.69;29.74;96550.03;1798884;79;21151;-83
2021/04/27 05:30:02;;;;;;;9.68;6.17;;;;;;;24.20;27.74;96548.83;1798450;79;21500;-83
2021/04/27 05:32:29;;;;;;;13.05;7.25;;;;;;;23.52;26.25;96556.00;1765347;80;21159;-83
2021/04/27 05:34:56;;;;;;;12.95;8.00;;;;;;;22.98;26.06;96555.69;1815083;78;21124;-82
2021/04/27 05:37:24;;;;;;;12.45;7.55;;;;;;;22.75;26.08;96550.20;1782372;80;21133;-82
2021/04/27 05:39:51;;;;;;;12.90;7.80;;;;;;;22.54;25.95;96553.09;1772454;79;21134;-82
2021/04/27 05:42:19;;;;;;;11.45;7.42;;;;;;;22.40;25.08;96559.00;1799405;78;21167;-82
2021/04/27 05:44:46;;;;;;;13.22;7.65;;;;;;;22.70;22.89;96559.97;1758156;81;21110;-82
2021/04/27 05:47:13;;;;;;;14.55;7.92;;;;;;;21.94;21.96;96559.55;1801990;78;21146;-82
2021/04/27 05:49:40;;;;;;;13.15;8.23;;;;;;;20.57;21.87;96565.23;1782262;79;21139;-82
2021/04/27 05:52:08;;;;;;;12.58;8.58;;;;;;;20.01;22.90;96573.80;1780998;80;21106;-82
2021/04/27 05:54:35;;;;;;;16.10;8.78;;;;;;;19.60;22.66;96568.91;1784830;80;21122;-83
2021/04/27 05:57:03;;;;;;;13.35;8.45;;;;;;;19.93;22.60;96572.02;1769527;80;21149;-82
2021/04/27 05:59:30;;;;;;;13.08;8.33;;;;;;;19.70;22.36;96569.00;1778706;79;21131;-82
2021/04/27 06:01:58;;;;;;;15.78;8.55;;;;;;;20.22;24.07;96573.63;1780038;80;21110;-82
2021/04/27 06:04:26;;;;;;;11.85;7.60;;;;;;;22.98;23.44;96565.14;1790207;79;21087;-83
2021/04/27 06:06:53;;;;;;;11.63;7.50;;;;;;;22.98;23.44;96565.14;1820198;78;21282;-82
2021/04/27 06:09:20;;;;;;;13.53;8.78;;;;;;;23.72;21.09;96570.80;1786168;80;21178;-82
2021/04/27 06:11:47;;;;;;;14.05;9.53;;;;;;;22.82;20.89;96572.55;1790374;79;21150;-82
2021/04/27 06:14:15;;;;;;;13.65;8.90;;;;;;;23.21;22.68;96575.17;1779422;79;21462;-83
2021/04/27 06:16:42;;;;;;;11.53;8.20;;;;;;;24.20;22.07;96572.64;1793806;79;21615;-82
2021/04/27 06:19:09;;;;;;;11.00;7.83;;;;;;;24.06;20.09;96572.45;1779539;80;21178;-83
2021/04/27 06:21:36;;;;;;;11.88;8.45;;;;;;;23.30;21.07;96583.84;1784076;80;21137;-83
2021/04/27 06:24:04;;;;;;;11.35;8.03;;;;;;;24.56;22.13;96578.54;1786125;80;21132;-82
2021/04/27 06:26:31;;;;;;;12.43;7.70;;;;;;;24.15;18.28;96581.67;1793537;79;21165;-82
2021/04/27 06:28:58;;;;;;;12.25;8.08;;;;;;;22.62;19.02;96580.45;1792432;79;21186;-82
2021/04/27 06:31:25;;;;;;;11.43;7.70;;;;;;;23.23;21.50;96581.03;1781781;80;21269;-82
2021/04/27 06:33:53;;;;;;;10.82;8.28;;;;;;;23.52;18.81;96587.12;1792937;80;21253;-83
2021/04/27 06:36:20;;;;;;;11.33;8.03;;;;;;;23.64;20.68;96582.86;1791732;79;21237;-82
2021/04/27 06:38:47;;;;;;;10.95;7.95;;;;;;;24.93;21.25;96585.92;1772578;80;21134;-82
2021/04/27 06:41:17;;;;;;;12.60;7.45;;;;;;;26.38;21.08;96584.95;1767179;80;21126;-82
2021/04/27 06:43:46;;;;;;;10.98;7.10;;;;;;;26.78;19.24;96588.61;1770416;79;21103;-82
2021/04/27 06:46:13;;;;;;;11.60;7.60;;;;;;;26.59;17.76;96591.83;1776586;80;21115;-82
2021/04/27 06:48:40;;;;;;;12.07;7.33;;;;;;;26.58;19.55;96591.63;1780287;80;21123;-82
2021/04/27 06:51:08;;;;;;;9.60;6.90;;;;;;;27.18;18.02;96593.78;1766290;80;21107;-83
2021/04/27 06:53:36;;;;;;;9.68;6.10;;;;;;;26.72;18.03;96592.27;1777526;80;21145;-83
2021/04/27 06:56:05;;;;;;;7.55;5.65;;;;;;;27.03;18.40;96592.20;1791093;80;21263;-83
2021/04/27 06:58:32;;;;;;;9.65;6.35;;;;;;;28.28;18.94;96588.87;1773744;79;21476;-83
2021/04/27 07:00:59;;;;;;;10.28;6.55;;;;;;;28.50;17.47;96592.91;1778522;79;21173;-83
2021/04/27 07:03:26;;;;;;;8.65;6.35;;;;;;;28.77;15.87;96592.59;1795333;79;21115;-83
2021/04/27 07:05:54;;;;;;;6.78;4.80;;;;;;;27.34;15.16;96595.36;1779589;79;21123;-83
2021/04/27 07:08:21;;;;;;;9.08;5.95;;;;;;;26.72;14.31;96596.34;1787915;79;21159;-83
2021/04/27 07:10:49;;;;;;;8.50;6.28;;;;;;;26.08;17.08;96594.67;1801962;78;21222;-83
2021/04/27 07:13:17;;;;;;;10.78;7.17;;;;;;;27.73;17.84;96603.53;1775537;80;21174;-83
2021/04/27 07:15:44;;;;;;;6.65;5.25;;;;;;;28.24;16.91;96605.03;1782875;80;21125;-83
2021/04/27 07:18:14;;;;;;;9.83;5.87;;;;;;;29.08;17.04;96602.39;1818407;78;21095;-83
2021/04/27 07:20:43;;;;;;;7.67;6.03;;;;;;;29.57;14.56;96599.17;1798338;79;21104;-83
2021/04/27 07:23:10;;;;;;;10.10;7.00;;;;;;;29.69;17.17;96602.16;1797423;79;21115;-83
2021/04/27 07:25:38;;;;;;;8.25;6.08;;;;;;;29.78;15.65;96600.34;1775952;80;21459;-83
2021/04/27 07:28:06;;;;;;;7.62;5.87;;;;;;;29.72;16.29;96600.02;1774468;80;21157;-82
2021/04/27 07:30:36;;;;;;;6.25;4.90;;;;;;;30.66;16.41;96597.30;1800551;79;21080;-83
2021/04/27 07:33:05;;;;;;;7.53;5.22;;;;;;;31.67;14.56;96601.55;1774902;80;21461;-83
2021/04/27 07:35:33;;;;;;;6.50;4.95;;;;;;;29.85;14.17;96605.16;1778232;79;21075;-83
2021/04/27 07:38:04;;;;;;;7.37;5.85;;;;;;;30.33;15.32;96596.70;1778125;80;21103;-83
2021/04/27 07:40:33;;;;;;;5.87;4.17;;;;;;;30.80;15.88;96592.83;1772850;80;21151;-83
2021/04/27 07:43:03;;;;;;;5.28;3.70;;;;;;;30.63;12.73;96595.39;1783863;79;21133;-83
2021/04/27 07:45:34;;;;;;;7.97;5.47;;;;;;;29.38;14.54;96601.80;1777418;79;21467;-83
2021/04/27 07:48:06;;;;;;;7.35;5.30;;;;;;;30.16;15.77;96601.78;1782857;79;21174;-83
2021/04/27 07:50:35;;;;;;;5.67;4.10;;;;;;;31.60;15.44;96605.19;1795960;79;21111;-84
2021/04/27 07:53:05;;;;;;;4.53;3.30;;;;;;;32.42;13.72;96595.56;1769841;80;21141;-83
2021/04/27 07:55:32;;;;;;;7.92;4.87;;;;;;;32.74;14.90;96604.52;1784400;79;21509;-84
2021/04/27 07:58:00;;;;;;;5.12;4.28;;;;;;;32.30;14.43;96604.42;1774371;79;21505;-84
2021/04/27 08:00:27;;;;;;;5.90;4.30;;;;;;;33.03;14.86;96599.81;1787354;79;21487;-84
2021/04/27 08:02:54;;;;;;;5.72;3.98;;;;;;;33.90;14.21;96607.03;1795088;79;21091;-84
2021/04/27 08:05:23;;;;;;;5.10;4.33;;;;;;;34.36;14.39;96604.48;1769553;79;21523;-84
2021/04/27 08:07:51;;;;;;;3.25;2.62;;;;;;;34.89;14.02;96595.31;1763370;80;21160;-84
2021/04/27 08:10:18;;;;;;;2.30;1.70;;;;;;;35.05;13.19;96602.71;1776466;80;21130;-84
2021/04/27 08:12:50;;;;;;;2.52;1.85;;;;;;;32.27;9.41;96595.63;1775252;79;21530;-84
2021/04/27 08:15:22;;;;;;;2.90;2.45;;;;;;;29.27;11.50;96601.28;1791062;79;21272;-83
2021/04/27 08:17:51;;;;;;;5.92;3.52;;;;;;;29.03;11.83;96604.96;1769365;80;21083;-83
2021/04/27 08:20:20;;;;;;;5.15;4.20;;;;;;;27.86;13.00;96599.83;1780646;80;22038;-83
2021/04/27 08:22:49;;;;;;;5.12;4.45;;;;;;;28.86;14.38;96607.17;1769073;79;21168;-82
2021/04/27 08:25:18;;;;;;;5.45;4.20;;;;;;;30.82;14.63;96605.52;1778533;79;21206;-84
2021/04/27 08:27:48;;;;;;;6.65;4.65;;;;;;;31.75;13.90;96603.02;1775895;79;21146;-83
2021/04/27 08:30:20;;;;;;;7.90;4.95;;;;;;;32.64;13.90;96601.98;1776380;79;21115;-83
2021/04/27 08:32:54;;;;;;;6.97;5.35;;;;;;;31.56;10.63;96599.59;1768923;79;21498;-81
2021/04/27 08:35:27;;;;;;;6.07;4.27;;;;;;;27.96;11.58;96605.86;1752326;80;21107;-83
2021/04/27 08:37:54;;;;;;;6.83;4.35;;;;;;;25.12;13.38;96612.88;1778771;80;21851;-82
2021/04/27 08:40:22;;;;;;;8.00;4.90;;;;;;;25.12;14.58;96601.45;1767538;80;21134;-82
2021/04/27 08:42:51;;;;;;;7.03;4.65;;;;;;;25.40;14.13;96603.64;1801895;79;21131;-83
2021/04/27 08:45:20;;;;;;;7.25;4.78;;;;;;;26.52;15.19;96596.47;1792180;79;21155;-82
2021/04/27 08:47:48;;;;;;;8.48;4.92;;;;;;;28.14;15.04;96590.24;1770034;79;21110;-82
2021/04/27 08:50:18;;;;;;;8.48;5.00;;;;;;;28.78;12.94;96592.00;1780099;79;21123;-82
2021/04/27 08:52:47;;;;;;;6.55;4.55;;;;;;;27.67;13.00;96591.48;1791419;78;21224;-82
2021/04/27 08:55:15;;;;;;;6.97;4.45;;;;;;;25.44;13.07;96595.53;1777105;80;21111;-82
2021/04/27 08:57:44;;;;;;;7.72;5.17;;;;;;;25.21;15.40;96593.02;1765505;80;21162;-82
2021/04/27 09:00:17;;;;;;;7.70;4.83;;;;;;;26.02;15.06;96588.80;1782654;79;21127;-82
2021/04/27 09:02:48;;;;;;;6.65;4.40;;;;;;;26.63;15.71;96593.22;1764447;80;21471;-82
2021/04/27 09:05:27;;;;;;;8.00;4.75;;;;;;;27.65;15.60;96593.24;1803847;79;21115;-82
2021/04/27 09:07:56;;;;;;;7.03;4.50;;;;;;;27.91;13.78;96596.73;1769423;80;21170;-82
2021/04/27 09:10:40;;;;;;;9.10;4.83;;;;;;;27.91;13.78;96596.73;1785811;79;21536;-82
2021/04/27 09:13:16;;;;;;;7.60;4.60;;;;;;;27.19;14.80;96598.06;1764436;80;21131;-82
2021/04/27 09:15:51;;;;;;;9.15;5.20;;;;;;;24.45;13.41;96592.53;1763364;80;21192;-81
2021/04/27 09:18:35;;;;;;;8.53;5.20;;;;;;;20.82;15.83;96595.52;1775298;79;21100;-82
2021/04/27 09:21:09;;;;;;;8.10;4.78;;;;;;;19.14;17.30;96590.23;1789291;79;21108;-81
2021/04/27 09:23:42;;;;;;;8.95;4.83;;;;;;;17.36;19.00;96593.06;1776946;80;21162;-81
2021/04/27 09:26:20;;;;;;;6.80;4.62;;;;;;;16.76;19.41;96593.48;1768764;79;21173;-81
2021/04/27 09:28:52;;;;;;;7.83;4.87;;;;;;;16.11;19.77;96600.31;1796010;79;21197;-83
2021/04/27 09:31:36;;;;;;;6.65;4.45;;;;;;;15.19;20.61;96590.84;1775896;80;21487;-84
2021/04/27 09:34:28;;;;;;;7.58;4.30;;;;;;;14.19;22.72;96595.13;1777610;79;21143;-83
2021/04/27 09:37:12;;;;;;;8.65;5.55;;;;;;;12.86;23.44;96594.05;1787772;79;21142;-80
2021/04/27 09:39:45;;;;;;;7.47;4.90;;;;;;;11.99;24.91;96589.30;1784832;79;21195;-80
2021/04/27 09:42:24;;;;;;;8.85;4.15;;;;;;;12.02;25.08;96598.80;1782215;79;21115;-80
2021/04/27 09:44:55;;;;;;;9.93;5.10;;;;;;;11.89;24.63;96591.00;1774878;79;21119;-80
2021/04/27 09:47:31;;;;;;;7.50;4.62;;;;;;;11.65;27.33;96600.84;1794032;78;21507;-81
2021/04/27 09:50:07;;;;;;;9.20;4.58;;;;;;;11.65;26.35;96600.84;1780702;79;21147;-81
2021/04/27 09:52:45;;;;;;;7.67;4.90;;;;;;;11.83;26.66;96588.17;1774675;78;21457;-79
2021/04/27 09:55:20;;;;;;;10.88;5.35;;;;;;;12.13;25.41;96585.63;1793924;78;21132;-80
2021/04/27 09:57:56;;;;;;;7.47;4.50;;;;;;;12.44;25.58;96579.30;1794314;78;21181;-80
2021/04/27 10:00:39;;;;;;;8.28;4.58;;;;;;;12.75;26.35;96578.80;1768869;80;21499;-80
2021/04/27 10:03:12;;;;;;;8.03;4.55;;;;;;;12.36;25.63;96570.64;1775541;80;21542;-80
2021/04/27 10:05:42;;;;;;;8.30;4.70;;;;;;;12.38;26.31;96565.82;1795590;78;21211;-80
2021/04/27 10:08:11;;;;;;;;;;;;;;;12.61;26.99;96572.65;1780744;78;21096;-80
2021/04/27 10:10:41;;;;;;;8.18;4.75;;;;;;;12.91;26.79;96569.45;1788818;78;20162;-80
2021/04/27 10:13:10;;;;;;;7.50;4.05;;;;;;;13.13;26.79;96570.67;1794125;79;21151;-80
2021/04/27 10:15:38;;;;;;;8.95;5.08;;;;;;;12.94;25.49;96571.52;1768692;80;21448;-80
2021/04/27 10:18:09;;;;;;;8.40;4.55;;;;;;;11.86;25.39;96579.63;1783799;78;21257;-80
2021/04/27 10:20:37;;;;;;;;;;;;;;;11.35;27.47;96563.52;1793819;78;21153;-80
2021/04/27 10:23:09;;;;;;;7.50;5.03;;;;;;;11.45;27.34;96570.03;1770243;79;20177;-80
2021/04/27 10:25:36;;;;;;;7.03;3.70;;;;;;;11.34;27.63;96567.78;1765390;78;21107;-80
2021/04/27 10:28:08;;;;;;;7.67;4.33;;;;;;;11.52;27.30;96551.09;1770447;78;21102;-83
2021/04/27 10:30:46;;;;;;;8.35;4.90;;;;;;;11.40;28.54;96552.86;1783854;80;21263;-79
2021/04/27 10:33:24;;;;;;;9.90;4.67;;;;;;;11.80;27.95;96560.05;1773045;79;21149;-79
2021/04/27 10:36:13;;;;;;;8.10;4.50;;;;;;;12.09;28.10;96550.05;1766691;80;21100;-79
2021/04/27 10:38:48;;;;;;;7.67;4.28;;;;;;;12.40;28.27;96541.09;1774177;79;21478;-79
2021/04/27 10:41:22;;;;;;;7.28;4.65;;;;;;;12.49;27.36;96537.99;1766957;80;21205;-79
2021/04/27 10:44:01;;;;;;;8.10;4.47;;;;;;;12.49;27.07;96535.34;1791561;79;21133;-79
2021/04/27 10:46:41;;;;;;;7.85;4.35;;;;;;;12.64;27.63;96534.28;1754779;80;21698;-79
2021/04/27 10:49:23;;;;;;;7.70;4.50;;;;;;;12.54;27.26;96533.69;1784198;78;21242;-79
2021/04/27 10:51:53;;;;;;;8.35;4.22;;;;;;;12.42;28.72;96522.97;1771347;78;21126;-79
2021/04/27 10:54:34;;;;;;;9.03;4.97;;;;;;;12.61;28.23;96525.56;1801999;78;21175;-79
2021/04/27 10:57:10;;;;;;;8.70;4.70;;;;;;;12.26;26.62;96521.65;1782187;80;21253;-79
2021/04/27 11:00:02;;;;;;;6.92;4.12;;;;;;;11.52;27.56;96525.33;1776602;79;21150;-79
2021/04/27 11:02:32;;;;;;;7.83;3.92;;;;;;;11.51;29.29;96529.06;1782556;78;21110;-79
2021/04/27 11:05:10;;;;;;;6.22;4.15;;;;;;;11.94;28.89;96526.91;1786261;78;21152;-79
2021/04/27 11:08:01;;;;;;;6.72;3.95;;;;;;;12.31;29.19;96517.56;1858997;76;23076;-79
2021/04/27 11:10:28;;;;;;;7.20;3.90;;;;;;;12.52;29.13;96513.23;1825340;76;21111;-79
2021/04/27 11:13:00;;;;;;;8.13;4.40;;;;;;;12.43;27.68;96510.47;1848624;76;21130;-79
2021/04/27 11:15:33;;;;;;;9.23;4.33;;;;;;;11.73;27.94;96524.53;1825040;77;21119;-79
2021/04/27 11:18:19;;;;;;;8.53;4.35;;;;;;;11.53;28.52;96516.83;1823317;77;21098;-79
2021/04/27 11:21:09;;;;;;;8.85;5.30;;;;;;;11.28;28.21;96509.47;1846139;77;21482;-79
2021/04/27 11:23:53;;;;;;;9.68;5.17;;;;;;;11.18;29.08;96516.22;1828300;77;21115;-79
2021/04/27 11:26:38;;;;;;;8.35;4.25;;;;;;;11.21;29.69;96514.32;1837748;76;21115;-80
2021/04/27 11:29:16;;;;;;;9.70;4.75;;;;;;;11.63;29.93;96507.95;1818389;77;21304;-79
2021/04/27 11:32:12;;;;;;;6.65;4.12;;;;;;;11.89;29.26;96497.24;1836707;77;21065;-79
2021/04/27 11:37:41;;;;;;;7.85;5.12;;;;;;;11.17;30.11;96497.39;1813714;78;28186;-78
2021/04/27 11:40:32;;;;;;;7.35;4.58;;;;;;;10.90;29.45;96505.93;1757705;80;21100;-78
2021/04/27 11:45:51;;;;;;;9.38;4.42;;;;;;;11.13;29.48;96495.60;1763812;79;23321;-78
2021/04/27 11:48:21;;;;;;;10.70;4.53;;;;;;;11.22;29.65;96496.00;1742308;80;21107;-78
2021/04/27 11:50:51;;;;;;;7.30;4.22;;;;;;;11.50;29.60;96492.19;1708513;83;21165;-78
2021/04/27 11:53:21;;;;;;;6.10;4.12;;;;;;;11.78;29.84;96493.91;1699839;83;21158;-78
2021/04/27 11:55:57;;;;;;;8.73;4.72;;;;;;;11.36;28.80;96483.35;1703942;83;21122;-79